createdAt,value
2022-10-11T00:00:58.964Z,3.55
2022-10-11T00:03:27.519Z,3.70
2022-10-11T00:05:55.684Z,4.05
2022-10-11T00:08:24.489Z,4.20
2022-10-11T00:11:01.713Z,3.55
2022-10-11T00:13:30.302Z,3.80
2022-10-11T00:15:59.344Z,4.07
2022-10-11T00:18:27.656Z,3.50
2022-10-11T00:21:03.602Z,3.53
2022-10-11T00:23:31.878Z,3.60
2022-10-11T00:26:03.817Z,3.65
2022-10-11T00:28:32.565Z,3.45
2022-10-11T00:31:01.630Z,3.75
2022-10-11T00:33:29.970Z,3.30
2022-10-11T00:36:00.624Z,3.63
2022-10-11T00:38:30.051Z,4.20
2022-10-11T00:41:01.728Z,3.75
2022-10-11T00:43:32.351Z,3.53
2022-10-11T00:46:05.173Z,3.33
2022-10-11T00:48:41.427Z,3.15
2022-10-11T00:51:17.956Z,3.08
2022-10-11T00:53:48.686Z,3.53
2022-10-11T00:56:22.370Z,3.40
2022-10-11T00:58:50.819Z,3.00
2022-10-11T01:01:19.695Z,2.95
2022-10-11T01:03:48.122Z,3.10
2022-10-11T01:06:16.715Z,2.63
2022-10-11T01:08:45.964Z,2.60
2022-10-11T01:11:18.820Z,3.42
2022-10-11T01:13:57.421Z,2.70
2022-10-11T01:16:33.379Z,2.50
2022-10-11T01:19:13.429Z,3.13
2022-10-11T01:21:47.796Z,2.50
2022-10-11T01:24:46.332Z,2.75
2022-10-11T01:27:41.987Z,2.58
2022-10-11T01:30:23.606Z,2.80
2022-10-11T01:36:03.832Z,2.70
2022-10-11T01:38:36.820Z,2.53
2022-10-11T01:41:09.309Z,2.55
2022-10-11T01:43:40.333Z,2.53
2022-10-11T01:46:11.892Z,2.85
2022-10-11T01:48:49.683Z,2.53
2022-10-11T01:51:18.946Z,2.92
2022-10-11T01:54:26.002Z,2.78
2022-10-11T01:57:17.585Z,2.50
2022-10-11T01:59:56.822Z,2.28
2022-10-11T02:02:40.174Z,2.35
2022-10-11T02:05:13.753Z,2.42
2022-10-11T02:07:46.201Z,3.25
2022-10-11T02:10:21.032Z,2.53
2022-10-11T02:12:54.935Z,2.70
2022-10-11T02:15:24.383Z,2.90
2022-10-11T02:17:58.264Z,2.80
2022-10-11T02:20:29.198Z,2.58
2022-10-11T02:23:04.318Z,3.10
2022-10-11T02:25:36.003Z,2.40
2022-10-11T02:28:09.684Z,3.00
2022-10-11T02:30:39.109Z,2.67
2022-10-11T02:33:12.747Z,2.90
2022-10-11T02:35:45.487Z,3.00
2022-10-11T02:38:22.104Z,2.97
2022-10-11T02:40:58.040Z,2.83
2022-10-11T02:43:31.574Z,2.78
2022-10-11T02:46:02.228Z,2.47
2022-10-11T02:48:33.447Z,2.95
2022-10-11T02:51:01.973Z,3.55
2022-10-11T02:53:30.090Z,3.40
2022-10-11T02:55:58.907Z,3.03
2022-10-11T02:58:26.979Z,3.17
2022-10-11T03:00:55.495Z,2.97
2022-10-11T03:03:23.996Z,2.90
2022-10-11T03:05:59.569Z,2.88
2022-10-11T03:08:28.310Z,3.60
2022-10-11T03:10:56.527Z,3.90
2022-10-11T03:13:25.221Z,3.20
2022-10-11T03:16:02.796Z,3.63
2022-10-11T03:18:35.954Z,3.35
2022-10-11T03:21:05.937Z,3.25
2022-10-11T03:23:34.000Z,3.47
2022-10-11T03:26:02.971Z,3.53
2022-10-11T03:28:31.527Z,3.30
2022-10-11T03:31:00.125Z,3.10
2022-10-11T03:33:28.163Z,2.88
2022-10-11T03:35:56.433Z,3.13
2022-10-11T03:38:26.302Z,3.28
2022-10-11T03:40:54.811Z,3.05
2022-10-11T03:43:23.327Z,3.33
2022-10-11T03:45:51.330Z,3.08
2022-10-11T03:48:21.140Z,2.85
2022-10-11T03:50:49.838Z,3.17
2022-10-11T03:53:18.359Z,3.30
2022-10-11T03:55:48.372Z,2.63
2022-10-11T03:58:16.465Z,3.20
2022-10-11T04:00:44.884Z,3.08
2022-10-11T04:03:13.495Z,3.38
2022-10-11T04:05:42.139Z,3.17
2022-10-11T04:08:12.377Z,3.00
2022-10-11T04:10:41.526Z,3.50
2022-10-11T04:13:12.183Z,3.13
2022-10-11T04:15:41.317Z,3.63
2022-10-11T04:18:10.584Z,3.35
2022-10-11T04:20:38.829Z,3.33
2022-10-11T04:23:07.346Z,3.88
2022-10-11T04:25:35.471Z,4.20
2022-10-11T04:28:03.702Z,3.83
2022-10-11T04:30:33.170Z,3.55
2022-10-11T04:33:01.720Z,4.00
2022-10-11T04:35:29.838Z,3.53
2022-10-11T04:37:58.376Z,4.50
2022-10-11T04:40:26.486Z,3.58
2022-10-11T04:42:54.742Z,3.60
2022-10-11T04:45:22.883Z,3.63
2022-10-11T04:47:52.342Z,3.63
2022-10-11T04:50:21.108Z,3.95
2022-10-11T04:52:49.192Z,3.80
2022-10-11T04:55:17.362Z,3.90
2022-10-11T04:57:45.931Z,4.00
2022-10-11T05:00:15.385Z,4.80
2022-10-11T05:02:43.527Z,4.65
2022-10-11T05:05:17.465Z,4.95
2022-10-11T05:07:46.026Z,4.75
2022-10-11T05:10:14.575Z,4.30
2022-10-11T05:12:43.252Z,4.70
2022-10-11T05:15:12.182Z,4.75
2022-10-11T05:17:40.321Z,3.70
2022-10-11T05:20:10.074Z,4.88
2022-10-11T05:22:39.544Z,5.45
2022-10-11T05:25:08.554Z,5.40
2022-10-11T05:27:36.653Z,5.60
2022-10-11T05:30:07.271Z,5.45
2022-10-11T05:32:35.963Z,5.80
2022-10-11T05:35:04.878Z,5.82
2022-10-11T05:37:33.390Z,5.45
2022-10-11T05:40:02.828Z,6.07
2022-10-11T05:42:31.308Z,6.25
2022-10-11T05:44:59.424Z,5.68
2022-10-11T05:47:28.020Z,5.70
2022-10-11T05:49:56.086Z,5.82
2022-10-11T05:52:24.400Z,5.72
2022-10-11T05:54:52.987Z,6.32
2022-10-11T05:57:22.476Z,6.07
2022-10-11T05:59:51.477Z,6.78
2022-10-11T06:02:19.523Z,6.97
2022-10-11T06:04:48.454Z,6.80
2022-10-11T06:07:16.556Z,7.30
2022-10-11T06:09:45.080Z,7.03
2022-10-11T06:12:13.153Z,8.00
2022-10-11T06:14:43.599Z,6.95
2022-10-11T06:17:11.758Z,7.28
2022-10-11T06:19:39.845Z,7.68
2022-10-11T06:22:07.960Z,7.45
2022-10-11T06:24:36.051Z,7.30
2022-10-11T06:27:04.259Z,6.80
2022-10-11T06:29:32.416Z,7.00
2022-10-11T06:32:02.010Z,6.93
2022-10-11T06:34:30.629Z,7.10
2022-10-11T06:36:58.707Z,6.50
2022-10-11T06:39:27.347Z,7.30
2022-10-11T06:41:55.412Z,7.10
2022-10-11T06:44:23.525Z,7.53
2022-10-11T06:46:52.015Z,7.65
2022-10-11T06:49:23.454Z,6.85
2022-10-11T06:51:52.388Z,7.18
2022-10-11T06:54:20.804Z,7.28
2022-10-11T06:56:49.388Z,6.90
2022-10-11T06:59:17.458Z,6.68
2022-10-11T07:01:46.176Z,6.40
2022-10-11T07:04:14.279Z,7.00
2022-10-11T07:06:44.162Z,6.28
2022-10-11T07:09:12.348Z,7.35
2022-10-11T07:11:40.474Z,7.10
2022-10-11T07:14:08.954Z,8.05
2022-10-11T07:16:38.104Z,6.47
2022-10-11T07:19:07.628Z,6.43
2022-10-11T07:21:37.074Z,6.75
2022-10-11T07:24:07.445Z,6.90
2022-10-11T07:26:38.538Z,6.93
2022-10-11T07:29:09.105Z,7.28
2022-10-11T07:31:39.644Z,5.90
2022-10-11T07:34:08.531Z,6.60
2022-10-11T07:36:36.897Z,7.10
2022-10-11T07:39:08.007Z,6.97
2022-10-11T07:41:40.632Z,6.40
2022-10-11T07:44:11.351Z,6.75
2022-10-11T07:46:39.902Z,6.53
2022-10-11T07:49:07.981Z,6.88
2022-10-11T07:51:36.472Z,6.38
2022-10-11T07:54:07.521Z,6.70
2022-10-11T07:56:36.015Z,6.70
2022-10-11T07:59:04.861Z,7.03
2022-10-11T08:01:33.767Z,6.63
2022-10-11T08:04:02.418Z,6.93
2022-10-11T08:06:32.752Z,6.60
2022-10-11T08:09:02.818Z,6.60
2022-10-11T08:11:34.142Z,6.25
2022-10-11T08:14:04.887Z,5.50
2022-10-11T08:16:33.472Z,6.32
2022-10-11T08:19:03.112Z,6.75
2022-10-11T08:21:50.894Z,6.28
2022-10-11T08:24:20.854Z,6.57
2022-10-11T08:26:50.297Z,6.00
2022-10-11T08:29:19.044Z,7.13
2022-10-11T08:31:47.181Z,7.20
2022-10-11T08:34:15.930Z,6.40
2022-10-11T08:36:44.047Z,6.97
2022-10-11T08:39:12.760Z,6.47
2022-10-11T08:41:43.536Z,7.63
2022-10-11T08:44:46.139Z,8.27
2022-10-11T08:47:24.032Z,7.50
2022-10-11T08:49:52.731Z,6.95
2022-10-11T08:52:24.828Z,7.18
2022-10-11T08:54:56.585Z,7.93
2022-10-11T08:57:28.701Z,7.15
2022-10-11T09:00:02.735Z,7.25
2022-10-11T09:03:03.381Z,7.30
2022-10-11T09:05:35.205Z,5.78
2022-10-11T09:08:13.144Z,7.10
2022-10-11T09:10:54.564Z,6.75
2022-10-11T09:13:42.099Z,5.57
2022-10-11T09:16:20.436Z,5.90
2022-10-11T09:19:03.875Z,6.28
2022-10-11T09:21:42.634Z,6.65
2022-10-11T09:24:29.607Z,6.35
2022-10-11T09:26:59.603Z,6.32
2022-10-11T09:29:48.690Z,6.38
2022-10-11T09:32:20.989Z,6.75
2022-10-11T09:34:54.568Z,6.50
2022-10-11T09:37:28.009Z,6.18
2022-10-11T09:40:00.250Z,6.18
2022-10-11T09:42:28.827Z,6.72
2022-10-11T09:44:57.489Z,6.68
2022-10-11T09:47:29.783Z,6.85
2022-10-11T09:50:04.487Z,6.63
2022-10-11T09:52:35.054Z,7.38
2022-10-11T09:55:05.735Z,6.68
2022-10-11T09:57:37.719Z,6.60
2022-10-11T10:00:09.322Z,6.82
2022-10-11T10:02:45.114Z,6.82
2022-10-11T10:05:20.052Z,6.80
2022-10-11T10:08:23.485Z,5.75
2022-10-11T10:11:00.581Z,5.57
2022-10-11T10:13:39.875Z,6.55
2022-10-11T10:16:11.759Z,7.03
2022-10-11T10:18:50.941Z,6.45
2022-10-11T10:21:28.359Z,7.13
2022-10-11T10:23:58.132Z,7.05
2022-10-11T10:26:27.517Z,7.07
2022-10-11T10:29:17.012Z,6.88
2022-10-11T10:34:55.729Z,6.78
2022-10-11T10:37:28.538Z,7.22
2022-10-11T10:40:03.404Z,6.35
2022-10-11T10:42:32.028Z,6.53
2022-10-11T10:45:01.192Z,6.35
2022-10-11T10:47:54.382Z,6.78
2022-10-11T10:50:28.323Z,8.48
2022-10-11T10:53:10.516Z,7.90
2022-10-11T10:55:42.848Z,6.93
2022-10-11T10:58:31.854Z,6.95
2022-10-11T11:01:03.980Z,6.13
2022-10-11T11:03:41.679Z,5.78
2022-10-11T11:06:19.959Z,6.13
2022-10-11T11:09:05.699Z,5.70
2022-10-11T11:11:46.751Z,5.80
2022-10-11T11:14:28.136Z,8.45
2022-10-11T11:17:07.191Z,7.38
2022-10-11T11:20:00.077Z,6.50
2022-10-11T11:22:41.220Z,6.22
2022-10-11T11:25:20.756Z,5.30
2022-10-11T11:27:58.720Z,5.60
2022-10-11T11:30:36.355Z,6.05
2022-10-11T11:33:16.733Z,6.05
2022-10-11T11:35:50.001Z,5.82
2022-10-11T11:38:29.430Z,6.13
2022-10-11T11:41:02.578Z,5.55
2022-10-11T11:43:36.343Z,5.97
2022-10-11T11:46:11.081Z,5.70
2022-10-11T11:48:39.844Z,5.20
2022-10-11T11:51:12.989Z,5.93
2022-10-11T11:53:55.600Z,6.25
2022-10-11T11:56:29.715Z,6.03
2022-10-11T11:59:08.078Z,5.68
2022-10-11T12:01:41.135Z,5.65
2022-10-11T12:04:19.434Z,4.93
2022-10-11T12:07:15.492Z,4.32
2022-10-11T12:09:50.890Z,4.70
2022-10-11T12:12:31.503Z,4.40
2022-10-11T12:15:21.300Z,4.38
2022-10-11T12:18:07.274Z,4.47
2022-10-11T12:20:39.136Z,3.97
2022-10-11T12:23:46.875Z,4.75
2022-10-11T12:26:47.078Z,3.83
2022-10-11T12:29:47.743Z,4.30
2022-10-11T12:32:53.287Z,4.60
2022-10-11T12:35:49.075Z,5.70
2022-10-11T12:38:21.519Z,3.80
2022-10-11T12:40:51.676Z,4.07
2022-10-11T12:43:33.307Z,4.50
2022-10-11T12:46:39.782Z,4.60
2022-10-11T12:49:37.451Z,3.83
2022-10-11T12:52:22.253Z,4.40
2022-10-11T12:55:25.245Z,4.00
2022-10-11T12:58:38.671Z,3.80
2022-10-11T13:01:27.542Z,3.95
2022-10-11T13:04:06.856Z,3.72
2022-10-11T13:06:38.941Z,4.30
2022-10-11T13:09:17.225Z,4.70
2022-10-11T13:11:50.832Z,4.25
2022-10-11T13:14:22.440Z,3.83
2022-10-11T13:17:00.550Z,4.32
2022-10-11T13:19:29.759Z,3.80
2022-10-11T13:22:03.795Z,4.00
2022-10-11T13:24:39.559Z,4.10
2022-10-11T13:27:09.010Z,3.85
2022-10-11T13:29:40.692Z,4.65
2022-10-11T13:32:16.390Z,3.72
2022-10-11T13:34:48.897Z,3.33
2022-10-11T13:37:19.302Z,3.97
2022-10-11T13:39:49.369Z,3.90
2022-10-11T13:42:20.030Z,3.63
2022-10-11T13:44:48.765Z,3.95
2022-10-11T13:47:22.528Z,4.07
2022-10-11T13:50:02.932Z,4.18
2022-10-11T13:52:31.483Z,3.95
2022-10-11T13:55:11.569Z,4.20
2022-10-11T13:57:42.579Z,4.28
2022-10-11T14:00:23.345Z,3.75
2022-10-11T14:02:56.218Z,3.70
2022-10-11T14:05:30.252Z,3.83
2022-10-11T14:07:59.710Z,3.85
2022-10-11T14:10:28.173Z,4.10
2022-10-11T14:13:05.471Z,4.13
2022-10-11T14:15:35.806Z,4.20
2022-10-11T14:18:43.572Z,4.50
2022-10-11T14:21:33.309Z,4.03
2022-10-11T14:24:05.034Z,3.47
2022-10-11T14:26:35.871Z,4.32
2022-10-11T14:29:08.003Z,4.05
2022-10-11T14:31:41.310Z,4.50
2022-10-11T14:34:17.547Z,4.82
2022-10-11T14:36:46.240Z,4.72
2022-10-11T14:39:16.679Z,4.40
2022-10-11T14:41:44.912Z,4.20
2022-10-11T14:44:13.265Z,4.30
2022-10-11T14:46:42.666Z,4.57
2022-10-11T14:49:16.190Z,4.40
2022-10-11T14:51:45.667Z,5.43
2022-10-11T14:54:15.381Z,7.45
2022-10-11T14:56:43.710Z,6.85
2022-10-11T14:59:14.268Z,6.63
2022-10-11T15:01:42.678Z,6.38
2022-10-11T15:04:11.446Z,16.00
2022-10-11T15:06:42.755Z,9.30
2022-10-11T15:09:11.426Z,7.63
2022-10-11T15:11:40.531Z,6.63
2022-10-11T15:14:08.629Z,7.28
2022-10-11T15:16:37.493Z,7.90
2022-10-11T15:19:05.630Z,7.68
2022-10-11T15:21:35.392Z,7.90
2022-10-11T15:24:05.512Z,8.30
2022-10-11T15:26:34.677Z,7.10
2022-10-11T15:29:03.082Z,6.30
2022-10-11T15:31:31.201Z,14.85
2022-10-11T15:34:01.747Z,13.18
2022-10-11T15:36:30.715Z,11.50
2022-10-11T15:38:58.963Z,11.32
2022-10-11T15:41:28.940Z,10.13
2022-10-11T15:43:57.052Z,8.13
2022-10-11T15:46:25.176Z,7.30
2022-10-11T15:48:54.425Z,7.05
2022-10-11T15:51:23.027Z,6.93
2022-10-11T15:53:51.575Z,7.63
2022-10-11T15:56:19.766Z,7.38
2022-10-11T15:58:49.459Z,8.30
2022-10-11T16:01:19.677Z,7.00
2022-10-11T16:03:49.200Z,7.15
2022-10-11T16:06:17.400Z,8.00
2022-10-11T16:08:46.310Z,8.32
2022-10-11T16:11:14.991Z,6.63
2022-10-11T16:13:43.126Z,6.15
2022-10-11T16:16:13.319Z,7.75
2022-10-11T16:18:42.063Z,7.90
2022-10-11T16:21:11.585Z,8.32
2022-10-11T16:23:40.085Z,7.13
2022-10-11T16:26:10.492Z,8.05
2022-10-11T16:28:39.907Z,9.57
2022-10-11T16:31:09.523Z,8.75
2022-10-11T16:33:45.716Z,8.82
2022-10-11T16:36:36.467Z,8.43
2022-10-11T16:39:08.847Z,9.43
2022-10-11T16:41:37.545Z,9.75
2022-10-11T16:44:06.110Z,8.32
2022-10-11T16:46:34.974Z,8.55
2022-10-11T16:49:05.260Z,8.38
2022-10-11T16:51:33.359Z,8.43
2022-10-11T16:54:02.545Z,9.75
2022-10-11T16:56:30.601Z,8.23
2022-10-11T16:58:59.430Z,7.95
2022-10-11T17:01:28.401Z,9.20
2022-10-11T17:03:56.993Z,8.35
2022-10-11T17:06:27.334Z,7.90
2022-10-11T17:08:56.027Z,8.20
2022-10-11T17:11:24.382Z,8.45
2022-10-11T17:13:54.054Z,7.80
2022-10-11T17:16:23.249Z,7.60
2022-10-11T17:18:51.983Z,7.47
2022-10-11T17:21:21.771Z,6.55
2022-10-11T17:23:51.968Z,6.60
2022-10-11T17:26:23.705Z,6.28
2022-10-11T17:28:51.962Z,5.63
2022-10-11T17:31:20.210Z,5.28
2022-10-11T17:33:48.697Z,5.15
2022-10-11T17:36:22.183Z,4.15
2022-10-11T17:38:52.868Z,4.13
2022-10-11T17:41:21.695Z,3.72
2022-10-11T17:43:50.117Z,4.18
2022-10-11T17:46:22.107Z,3.92
2022-10-11T17:48:54.196Z,3.47
2022-10-11T17:51:22.655Z,4.00
2022-10-11T17:53:52.829Z,3.33
2022-10-11T17:56:27.630Z,4.22
2022-10-11T17:58:58.864Z,3.58
2022-10-11T18:01:29.617Z,3.90
2022-10-11T18:03:59.052Z,4.13
2022-10-11T18:06:29.454Z,3.70
2022-10-11T18:09:02.226Z,5.47
2022-10-11T18:11:31.658Z,4.47
2022-10-11T18:14:00.305Z,4.68
2022-10-11T18:16:30.593Z,4.85
2022-10-11T18:18:59.916Z,5.13
2022-10-11T18:21:34.314Z,5.47
2022-10-11T18:24:08.324Z,4.65
2022-10-11T18:26:36.428Z,4.60
2022-10-11T18:29:05.411Z,4.57
2022-10-11T18:31:35.429Z,4.50
2022-10-11T18:34:04.503Z,5.00
2022-10-11T18:36:33.272Z,5.38
2022-10-11T18:39:05.520Z,5.97
2022-10-11T18:41:36.656Z,5.90
2022-10-11T18:44:06.717Z,5.22
2022-10-11T18:46:36.123Z,5.07
2022-10-11T18:49:04.933Z,6.28
2022-10-11T18:51:34.627Z,8.40
2022-10-11T18:54:06.238Z,7.65
2022-10-11T18:56:36.550Z,11.88
2022-10-11T18:59:06.110Z,12.55
2022-10-11T19:01:36.193Z,10.35
2022-10-11T19:04:06.649Z,9.48
2022-10-11T19:06:37.447Z,10.05
2022-10-11T19:09:09.223Z,8.68
2022-10-11T19:11:38.446Z,7.53
2022-10-11T19:14:08.401Z,7.38
2022-10-11T19:16:40.088Z,6.15
2022-10-11T19:19:10.053Z,6.47
2022-10-11T19:21:38.503Z,6.35
2022-10-11T19:24:09.389Z,5.75
2022-10-11T19:26:39.395Z,6.15
2022-10-11T19:29:09.325Z,5.68
2022-10-11T19:31:41.901Z,7.57
2022-10-11T19:34:10.677Z,19.45
2022-10-11T19:36:42.279Z,12.20
2022-10-11T19:39:13.059Z,10.63
2022-10-11T19:41:42.400Z,9.07
2022-10-11T19:44:11.736Z,7.85
2022-10-11T19:46:57.558Z,45.97
2022-10-11T19:49:27.492Z,38.33
2022-10-11T19:51:56.211Z,22.27
2022-10-11T19:54:25.710Z,21.17
2022-10-11T19:56:54.268Z,17.48
2022-10-11T19:59:22.391Z,11.40
2022-10-11T20:01:52.992Z,10.80
2022-10-11T20:04:50.503Z,10.73
2022-10-11T20:07:10.837Z,8.75
2022-10-11T20:09:41.028Z,6.65
2022-10-11T20:12:09.568Z,6.97
2022-10-11T20:14:38.090Z,6.70
2022-10-11T20:17:06.193Z,6.53
2022-10-11T20:19:35.697Z,6.20
2022-10-11T20:22:03.862Z,6.22
2022-10-11T20:24:34.375Z,5.25
2022-10-11T20:27:06.147Z,6.35
2022-10-11T20:29:34.324Z,5.57
2022-10-11T20:32:02.484Z,5.80
2022-10-11T20:34:30.764Z,5.55
2022-10-11T20:36:59.395Z,5.57
2022-10-11T20:39:27.762Z,5.68
2022-10-11T20:41:55.849Z,5.03
2022-10-11T20:44:25.516Z,8.02
2022-10-11T20:46:54.038Z,7.07
2022-10-11T20:49:22.971Z,17.40
2022-10-11T20:51:52.119Z,32.40
2022-10-11T20:54:20.258Z,34.58
2022-10-11T20:56:48.423Z,26.52
2022-10-11T20:59:16.486Z,23.15
2022-10-11T21:01:46.317Z,31.75
2022-10-11T21:04:19.489Z,26.25
2022-10-11T21:06:48.771Z,24.08
2022-10-11T21:09:17.424Z,18.63
2022-10-11T21:11:45.954Z,27.98
2022-10-11T21:14:14.763Z,34.58
2022-10-11T21:16:43.147Z,30.08
2022-10-11T21:19:16.764Z,18.30
2022-10-11T21:21:52.501Z,17.67
2022-10-11T21:24:22.343Z,27.92
2022-10-11T21:26:50.897Z,27.15
2022-10-11T21:29:19.748Z,20.92
2022-10-11T21:31:47.866Z,18.35
2022-10-11T21:34:17.968Z,14.95
2022-10-11T21:36:46.088Z,11.27
2022-10-11T21:39:14.258Z,11.32
2022-10-11T21:41:43.050Z,10.85
2022-10-11T21:44:11.706Z,11.50
2022-10-11T21:47:05.474Z,10.40
2022-10-11T21:49:29.589Z,8.77
2022-10-11T21:51:57.715Z,8.00
2022-10-11T21:54:25.870Z,7.60
2022-10-11T21:56:54.396Z,6.95
2022-10-11T21:59:22.581Z,7.03
2022-10-11T22:01:50.849Z,6.85
2022-10-11T22:04:19.478Z,6.40
2022-10-11T22:06:49.015Z,6.63
2022-10-11T22:09:17.585Z,6.95
2022-10-11T22:11:45.668Z,6.70
2022-10-11T22:14:14.211Z,6.55
2022-10-11T22:16:42.290Z,6.47
2022-10-11T22:19:10.403Z,6.57
2022-10-11T22:21:43.987Z,5.43
2022-10-11T22:24:14.501Z,5.88
2022-10-11T22:26:43.042Z,5.90
2022-10-11T22:29:11.597Z,6.30
2022-10-11T22:31:39.719Z,5.90
2022-10-11T22:34:08.287Z,6.07
2022-10-11T22:36:36.491Z,5.93
2022-10-11T22:39:08.336Z,7.35
2022-10-11T22:41:38.600Z,5.38
2022-10-11T22:44:06.957Z,6.68
2022-10-11T22:46:35.511Z,6.88
2022-10-11T22:49:04.092Z,6.78
2022-10-11T22:51:32.246Z,5.70
2022-10-11T22:54:00.776Z,6.30
2022-10-11T22:56:29.386Z,6.43
2022-10-11T22:59:00.285Z,6.45
2022-10-11T23:01:28.438Z,6.50
2022-10-11T23:03:56.690Z,6.20
2022-10-11T23:06:25.273Z,6.35
2022-10-11T23:08:53.371Z,6.15
2022-10-11T23:11:21.904Z,6.03
2022-10-11T23:13:50.000Z,6.40
2022-10-11T23:16:19.505Z,6.10
2022-10-11T23:18:47.598Z,6.50
2022-10-11T23:21:15.663Z,6.80
2022-10-11T23:23:44.354Z,6.38
2022-10-11T23:26:14.516Z,6.13
2022-10-11T23:28:43.475Z,6.90
2022-10-11T23:31:14.505Z,6.20
2022-10-11T23:33:44.323Z,6.53
2022-10-11T23:36:17.044Z,5.72
2022-10-11T23:38:45.334Z,6.57
2022-10-11T23:41:13.877Z,5.88
2022-10-11T23:43:42.016Z,7.35
2022-10-11T23:46:10.100Z,6.50
2022-10-11T23:48:38.708Z,6.85
2022-10-11T23:51:08.640Z,6.38
2022-10-11T23:53:37.507Z,7.10
2022-10-11T23:56:06.832Z,6.75
2022-10-11T23:58:34.925Z,6.72
